createdAt,value
2019-04-27T00:01:40.602Z,86.80
2019-04-27T00:04:19.260Z,87.00
2019-04-27T00:06:49.955Z,86.90
2019-04-27T00:09:29.880Z,87.00
2019-04-27T00:12:06.573Z,87.00
2019-04-27T00:14:36.185Z,87.10
2019-04-27T00:17:08.257Z,87.20
2019-04-27T00:19:55.739Z,87.30
2019-04-27T00:22:33.461Z,87.30
2019-04-27T00:25:03.480Z,87.40
2019-04-27T00:27:33.499Z,87.30
2019-04-27T00:30:03.891Z,87.40
2019-04-27T00:32:33.299Z,87.60
2019-04-27T00:35:03.708Z,87.80
2019-04-27T00:37:37.489Z,87.90
2019-04-27T00:40:09.749Z,88.00
2019-04-27T00:42:39.089Z,88.10
2019-04-27T00:45:08.704Z,88.20
2019-04-27T00:47:37.966Z,88.40
2019-04-27T00:50:08.285Z,88.70
2019-04-27T00:52:37.621Z,88.50
2019-04-27T00:55:07.234Z,88.60
2019-04-27T00:57:38.141Z,88.60
2019-04-27T01:00:18.192Z,88.80
2019-04-27T01:02:49.185Z,89.00
2019-04-27T01:05:20.224Z,89.10
2019-04-27T01:07:49.512Z,89.40
2019-04-27T01:10:19.104Z,89.70
2019-04-27T01:12:48.410Z,89.70
2019-04-27T01:15:17.676Z,90.00
2019-04-27T01:17:46.936Z,90.00
2019-04-27T01:20:16.212Z,90.10
2019-04-27T01:22:45.497Z,90.20
2019-04-27T01:25:15.122Z,90.20
2019-04-27T01:28:02.545Z,90.30
2019-04-27T01:30:36.351Z,90.30
2019-04-27T01:33:05.941Z,90.30
2019-04-27T01:35:35.217Z,90.30
2019-04-27T01:38:04.552Z,90.40
2019-04-27T01:40:34.093Z,90.50
2019-04-27T01:43:03.357Z,90.60
2019-04-27T01:45:32.630Z,90.60
2019-04-27T01:48:01.893Z,90.60
2019-04-27T01:50:31.169Z,90.70
2019-04-27T01:53:00.437Z,90.80
2019-04-27T01:55:29.940Z,90.80
2019-04-27T01:57:59.443Z,90.80
2019-04-27T02:00:39.720Z,90.80
2019-04-27T02:03:10.624Z,90.90
2019-04-27T02:05:56.441Z,90.90
2019-04-27T02:08:25.705Z,90.90
2019-04-27T02:10:54.974Z,90.90
2019-04-27T02:13:24.233Z,91.00
2019-04-27T02:15:53.516Z,91.00
2019-04-27T02:18:34.820Z,91.10
2019-04-27T02:20:53.742Z,91.10
2019-04-27T02:23:23.006Z,91.20
2019-04-27T02:25:53.898Z,91.20
2019-04-27T02:28:24.810Z,91.20
2019-04-27T02:31:11.845Z,91.30
2019-04-27T02:33:42.757Z,91.30
2019-04-27T02:36:15.110Z,91.30
2019-04-27T02:38:42.999Z,91.40
2019-04-27T02:41:12.273Z,91.40
2019-04-27T02:43:55.005Z,91.40
2019-04-27T02:46:24.261Z,91.50
2019-04-27T02:49:00.145Z,91.50
2019-04-27T02:51:29.939Z,91.50
2019-04-27T02:54:00.632Z,91.60
2019-04-27T02:56:30.771Z,91.60
2019-04-27T02:59:00.118Z,91.60
2019-04-27T03:01:31.041Z,91.80
2019-04-27T03:04:00.649Z,91.70
2019-04-27T03:06:31.045Z,91.70
2019-04-27T03:09:00.793Z,91.80
2019-04-27T03:11:32.340Z,91.80
2019-04-27T03:14:29.486Z,91.80
2019-04-27T03:16:50.986Z,91.80
2019-04-27T03:19:40.106Z,91.80
2019-04-27T03:22:20.084Z,91.80
2019-04-27T03:25:10.580Z,91.80
2019-04-27T03:27:50.054Z,91.90
2019-04-27T03:30:22.593Z,91.90
2019-04-27T03:32:51.288Z,91.90
2019-04-27T03:35:22.775Z,91.90
2019-04-27T03:37:51.943Z,92.00
2019-04-27T03:40:21.209Z,92.00
2019-04-27T03:42:52.135Z,92.00
2019-04-27T03:45:21.382Z,92.00
2019-04-27T03:47:50.756Z,92.10
2019-04-27T03:50:24.091Z,92.10
2019-04-27T03:52:59.953Z,92.10
2019-04-27T03:55:42.646Z,92.10
2019-04-27T03:58:30.456Z,92.20
2019-04-27T04:01:00.988Z,92.10
2019-04-27T04:03:30.266Z,92.20
2019-04-27T04:06:00.239Z,92.20
2019-04-27T04:08:30.751Z,92.20
2019-04-27T04:11:01.782Z,92.20
2019-04-27T04:13:39.648Z,92.30
2019-04-27T04:16:20.681Z,92.30
2019-04-27T04:18:59.936Z,92.30
2019-04-27T04:21:29.791Z,92.30
2019-04-27T04:24:00.955Z,92.30
2019-04-27T04:26:32.918Z,92.30
2019-04-27T04:29:01.516Z,92.40
2019-04-27T04:31:33.279Z,92.30
2019-04-27T04:34:01.781Z,92.40
2019-04-27T04:36:31.020Z,92.40
2019-04-27T04:39:00.678Z,92.40
2019-04-27T04:41:35.566Z,92.40
2019-04-27T04:44:06.555Z,92.40
2019-04-27T04:46:40.206Z,92.30
2019-04-27T04:49:09.553Z,92.40
2019-04-27T04:51:40.136Z,92.40
2019-04-27T04:54:09.707Z,92.30
2019-04-27T04:56:39.351Z,92.30
2019-04-27T04:59:10.121Z,92.40
2019-04-27T05:01:40.014Z,92.40
2019-04-27T05:04:09.350Z,92.40
2019-04-27T05:06:39.044Z,92.30
2019-04-27T05:09:09.275Z,92.30
2019-04-27T05:11:39.601Z,92.30
2019-04-27T05:14:09.839Z,92.30
2019-04-27T05:16:39.250Z,92.20
2019-04-27T05:19:11.098Z,92.20
2019-04-27T05:21:39.469Z,92.20
2019-04-27T05:24:09.352Z,92.10
2019-04-27T05:26:39.748Z,92.00
2019-04-27T05:29:10.296Z,92.00
2019-04-27T05:31:39.577Z,91.90
2019-04-27T05:34:09.559Z,91.90
2019-04-27T05:36:41.803Z,91.80
2019-04-27T05:39:13.074Z,91.80
2019-04-27T05:41:41.753Z,91.70
2019-04-27T05:44:20.694Z,91.70
2019-04-27T05:47:10.015Z,91.60
2019-04-27T05:49:41.078Z,91.50
2019-04-27T05:52:29.893Z,91.40
2019-04-27T05:55:00.425Z,91.40
2019-04-27T05:57:31.483Z,91.30
2019-04-27T06:00:02.053Z,91.30
2019-04-27T06:02:32.149Z,91.30
2019-04-27T06:05:01.441Z,91.30
2019-04-27T06:07:31.796Z,91.30
2019-04-27T06:10:01.069Z,91.40
2019-04-27T06:12:30.352Z,91.40
2019-04-27T06:15:00.166Z,91.50
2019-04-27T06:17:30.563Z,91.60
2019-04-27T06:19:59.866Z,91.60
2019-04-27T06:22:29.484Z,91.70
2019-04-27T06:25:00.086Z,91.70
2019-04-27T06:27:30.766Z,91.70
2019-04-27T06:30:01.209Z,91.90
2019-04-27T06:32:30.489Z,91.90
2019-04-27T06:34:59.842Z,92.00
2019-04-27T06:37:29.564Z,92.10
2019-04-27T06:40:00.004Z,92.20
2019-04-27T06:42:29.799Z,92.20
2019-04-27T06:45:00.326Z,92.70
2019-04-27T06:47:30.566Z,92.70
2019-04-27T06:49:59.844Z,92.40
2019-04-27T06:52:29.414Z,92.60
2019-04-27T06:55:00.475Z,92.60
2019-04-27T06:57:29.744Z,92.70
2019-04-27T06:59:59.248Z,92.70
2019-04-27T07:02:29.210Z,92.80
2019-04-27T07:04:59.202Z,92.90
2019-04-27T07:07:30.405Z,92.90
2019-04-27T07:09:59.666Z,92.60
2019-04-27T07:12:29.074Z,93.00
2019-04-27T07:14:59.200Z,93.10
2019-04-27T07:17:29.143Z,93.10
2019-04-27T07:19:59.403Z,93.10
2019-04-27T07:22:29.839Z,93.10
2019-04-27T07:24:59.306Z,93.20
2019-04-27T07:27:29.200Z,93.10
2019-04-27T07:29:59.560Z,93.10
2019-04-27T07:32:29.596Z,93.10
2019-04-27T07:34:58.874Z,93.00
2019-04-27T07:37:29.429Z,93.00
2019-04-27T07:39:59.288Z,93.00
2019-04-27T07:42:32.123Z,93.00
2019-04-27T07:45:02.235Z,93.10
2019-04-27T07:47:31.877Z,93.10
2019-04-27T07:50:01.393Z,93.20
2019-04-27T07:52:31.454Z,93.30
2019-04-27T07:55:00.730Z,93.30
2019-04-27T07:57:30.020Z,93.30
2019-04-27T07:59:59.722Z,93.40
2019-04-27T08:02:29.236Z,93.40
2019-04-27T08:04:59.586Z,93.40
2019-04-27T08:07:29.256Z,93.50
2019-04-27T08:10:01.542Z,93.60
2019-04-27T08:12:31.758Z,93.60
2019-04-27T08:15:01.027Z,93.70
2019-04-27T08:17:31.377Z,93.80
2019-04-27T08:20:00.651Z,93.80
2019-04-27T08:22:29.944Z,93.80
2019-04-27T08:24:59.581Z,93.90
2019-04-27T08:27:39.295Z,94.00
2019-04-27T08:30:16.425Z,94.10
2019-04-27T08:32:49.551Z,94.10
2019-04-27T08:35:19.454Z,94.20
2019-04-27T08:37:49.583Z,94.40
2019-04-27T08:40:19.753Z,94.40
2019-04-27T08:42:51.239Z,94.40
2019-04-27T08:45:19.998Z,94.40
2019-04-27T08:47:49.708Z,94.40
2019-04-27T08:50:19.331Z,94.50
2019-04-27T08:52:50.125Z,94.40
2019-04-27T08:55:19.788Z,94.50
2019-04-27T08:57:49.247Z,94.50
2019-04-27T09:00:19.747Z,94.50
2019-04-27T09:02:50.298Z,94.50
2019-04-27T09:05:25.896Z,94.50
2019-04-27T09:08:00.371Z,94.60
2019-04-27T09:10:38.814Z,94.60
2019-04-27T09:13:12.346Z,94.50
2019-04-27T09:15:46.169Z,94.50
2019-04-27T09:18:17.093Z,94.60
2019-04-27T09:20:49.085Z,94.60
2019-04-27T09:23:18.867Z,94.70
2019-04-27T09:25:49.642Z,94.80
2019-04-27T09:28:21.569Z,94.80
2019-04-27T09:30:50.068Z,94.70
2019-04-27T09:33:22.099Z,94.70
2019-04-27T09:35:50.347Z,94.70
2019-04-27T09:38:19.630Z,94.70
2019-04-27T09:40:48.912Z,94.70
2019-04-27T09:43:18.196Z,94.80
2019-04-27T09:45:47.478Z,95.20
2019-04-27T09:48:17.671Z,94.80
2019-04-27T09:50:47.048Z,93.70
2019-04-27T09:53:16.337Z,93.10
2019-04-27T09:55:46.877Z,93.10
2019-04-27T09:58:18.393Z,92.30
2019-04-27T10:00:48.881Z,92.50
2019-04-27T10:03:18.159Z,92.60
2019-04-27T10:05:47.447Z,92.60
2019-04-27T10:08:17.034Z,92.90
2019-04-27T10:10:47.976Z,93.10
2019-04-27T10:13:17.387Z,93.20
2019-04-27T10:15:46.674Z,93.20
2019-04-27T10:18:16.386Z,93.20
2019-04-27T10:20:58.189Z,93.20
2019-04-27T10:23:17.741Z,93.10
2019-04-27T10:25:47.012Z,93.30
2019-04-27T10:28:16.281Z,93.40
2019-04-27T10:30:45.828Z,93.50
2019-04-27T10:33:16.085Z,93.40
2019-04-27T10:35:47.238Z,93.10
2019-04-27T10:38:17.309Z,92.90
2019-04-27T10:40:46.857Z,92.60
2019-04-27T10:43:16.125Z,92.50
2019-04-27T10:45:46.338Z,92.30
2019-04-27T10:48:16.362Z,92.30
2019-04-27T10:50:47.773Z,91.60
2019-04-27T10:53:17.086Z,90.30
2019-04-27T10:55:46.560Z,90.00
2019-04-27T10:58:16.120Z,87.80
2019-04-27T11:00:49.997Z,86.50
2019-04-27T11:03:20.919Z,86.00
2019-04-27T11:05:54.806Z,85.90
2019-04-27T11:08:25.306Z,84.60
2019-04-27T11:10:56.296Z,82.70
2019-04-27T11:13:25.870Z,83.40
2019-04-27T11:15:56.157Z,84.70
2019-04-27T11:18:25.810Z,80.50
2019-04-27T11:20:56.749Z,79.80
2019-04-27T11:23:26.201Z,81.10
2019-04-27T11:25:55.509Z,80.00
2019-04-27T11:28:25.877Z,80.90
2019-04-27T11:30:56.209Z,82.10
2019-04-27T11:33:26.386Z,83.10
2019-04-27T11:36:14.955Z,83.40
2019-04-27T11:38:44.409Z,83.70
2019-04-27T11:41:13.685Z,84.10
2019-04-27T11:43:42.961Z,85.00
2019-04-27T11:46:12.309Z,85.90
2019-04-27T11:48:41.680Z,86.60
2019-04-27T11:51:11.101Z,87.10
2019-04-27T11:53:40.724Z,87.00
2019-04-27T11:56:11.002Z,87.40
2019-04-27T11:58:40.470Z,88.20
2019-04-27T12:01:10.909Z,88.60
2019-04-27T12:03:40.186Z,89.30
2019-04-27T12:06:09.483Z,88.40
2019-04-27T12:08:38.869Z,87.40
2019-04-27T12:11:08.125Z,88.10
2019-04-27T12:13:37.403Z,89.20
2019-04-27T12:16:06.733Z,90.00
2019-04-27T12:18:36.010Z,90.10
2019-04-27T12:21:06.127Z,90.20
2019-04-27T12:23:41.139Z,90.30
2019-04-27T12:26:08.600Z,90.30
2019-04-27T12:28:45.974Z,90.10
2019-04-27T12:31:26.087Z,90.10
2019-04-27T12:33:56.019Z,90.10
2019-04-27T12:36:25.888Z,90.00
2019-04-27T12:38:56.638Z,89.90
2019-04-27T12:41:26.235Z,89.90
2019-04-27T12:43:56.041Z,88.60
2019-04-27T12:46:25.505Z,87.60
2019-04-27T12:48:57.101Z,88.10
2019-04-27T12:51:25.811Z,88.20
2019-04-27T12:54:03.938Z,88.20
2019-04-27T12:56:51.331Z,88.10
2019-04-27T12:59:28.034Z,87.50
2019-04-27T13:01:57.445Z,87.00
2019-04-27T13:04:26.730Z,85.90
2019-04-27T13:06:56.029Z,84.80
2019-04-27T13:09:25.680Z,80.30
2019-04-27T13:11:56.029Z,74.90
2019-04-27T13:14:26.342Z,68.80
2019-04-27T13:16:56.088Z,68.20
2019-04-27T13:19:25.938Z,69.20
2019-04-27T13:21:55.887Z,68.50
2019-04-27T13:24:26.364Z,62.50
2019-04-27T13:26:56.760Z,63.30
2019-04-27T13:29:26.108Z,60.60
2019-04-27T13:31:55.708Z,61.40
2019-04-27T13:34:26.373Z,61.70
2019-04-27T13:36:56.419Z,60.40
2019-04-27T13:39:25.803Z,59.20
2019-04-27T13:41:56.320Z,58.70
2019-04-27T13:44:26.157Z,53.70
2019-04-27T13:47:17.156Z,55.40
2019-04-27T13:49:51.172Z,56.20
2019-04-27T13:52:22.129Z,56.10
2019-04-27T13:54:51.414Z,55.50
2019-04-27T13:57:20.713Z,55.30
2019-04-27T13:59:51.609Z,55.10
2019-04-27T14:02:21.516Z,55.60
2019-04-27T14:04:52.085Z,55.80
2019-04-27T14:07:21.375Z,56.10
2019-04-27T14:09:50.707Z,57.20
2019-04-27T14:12:21.756Z,58.40
2019-04-27T14:14:51.223Z,61.10
2019-04-27T14:17:20.579Z,63.30
2019-04-27T14:19:49.938Z,62.60
2019-04-27T14:22:19.408Z,64.00
2019-04-27T14:24:49.209Z,63.70
2019-04-27T14:27:20.427Z,64.20
2019-04-27T14:29:49.833Z,64.00
2019-04-27T14:32:19.311Z,60.60
2019-04-27T14:34:50.382Z,59.30
2019-04-27T14:37:19.862Z,56.80
2019-04-27T14:39:49.172Z,56.50
2019-04-27T14:42:19.151Z,55.20
2019-04-27T14:44:49.064Z,55.10
2019-04-27T14:47:18.880Z,54.20
2019-04-27T14:49:49.100Z,55.00
2019-04-27T14:52:18.867Z,55.50
2019-04-27T14:54:50.719Z,56.50
2019-04-27T14:57:20.494Z,53.90
2019-04-27T14:59:50.024Z,55.10
2019-04-27T15:02:19.325Z,56.40
2019-04-27T15:04:48.654Z,57.50
2019-04-27T15:07:17.946Z,56.50
2019-04-27T15:09:49.748Z,56.30
2019-04-27T15:12:18.296Z,56.60
2019-04-27T15:14:47.679Z,54.80
2019-04-27T15:17:17.570Z,55.10
2019-04-27T15:19:53.765Z,56.00
2019-04-27T15:22:24.854Z,55.40
2019-04-27T15:25:09.035Z,55.60
2019-04-27T15:27:37.368Z,52.80
2019-04-27T15:30:11.142Z,52.50
2019-04-27T15:32:43.321Z,51.60
2019-04-27T15:35:30.438Z,52.10
2019-04-27T15:38:13.754Z,51.30
2019-04-27T15:40:50.606Z,52.70
2019-04-27T15:43:18.698Z,52.80
2019-04-27T15:45:48.674Z,53.20
2019-04-27T15:48:20.225Z,53.60
2019-04-27T15:50:49.133Z,53.10
2019-04-27T15:53:18.492Z,54.00
2019-04-27T15:55:49.650Z,54.00
2019-04-27T15:58:24.807Z,52.80
2019-04-27T16:00:56.232Z,52.50
2019-04-27T16:03:22.674Z,53.70
2019-04-27T16:05:51.922Z,54.10
2019-04-27T16:08:21.258Z,55.30
2019-04-27T16:10:50.555Z,55.10
2019-04-27T16:13:19.851Z,55.30
2019-04-27T16:15:54.079Z,54.90
2019-04-27T16:18:20.163Z,54.30
2019-04-27T16:20:49.460Z,54.60
2019-04-27T16:23:18.780Z,56.10
2019-04-27T16:25:49.388Z,57.80
2019-04-27T16:28:19.114Z,59.30
2019-04-27T16:30:52.358Z,61.30
2019-04-27T16:33:23.141Z,62.60
2019-04-27T16:35:53.200Z,64.90
2019-04-27T16:38:26.722Z,66.20
2019-04-27T16:40:59.729Z,66.00
2019-04-27T16:43:32.646Z,66.10
2019-04-27T16:46:04.375Z,66.40
2019-04-27T16:48:34.565Z,66.20
2019-04-27T16:51:02.330Z,67.30
2019-04-27T16:53:38.205Z,68.40
2019-04-27T16:56:14.347Z,68.60
2019-04-27T16:58:39.888Z,69.00
2019-04-27T17:01:13.476Z,71.90
2019-04-27T17:03:42.852Z,73.10
2019-04-27T17:06:12.180Z,74.60
2019-04-27T17:08:41.523Z,73.80
2019-04-27T17:11:13.691Z,74.40
2019-04-27T17:13:44.140Z,74.10
2019-04-27T17:16:16.421Z,74.40
2019-04-27T17:18:52.714Z,74.00
2019-04-27T17:21:25.765Z,73.80
2019-04-27T17:23:58.496Z,72.30
2019-04-27T17:26:26.152Z,72.00
2019-04-27T17:28:59.913Z,70.30
2019-04-27T17:31:30.867Z,69.60
2019-04-27T17:34:01.604Z,69.40
2019-04-27T17:36:30.899Z,69.40
2019-04-27T17:39:00.219Z,69.40
2019-04-27T17:41:29.498Z,69.20
2019-04-27T17:43:59.162Z,69.50
2019-04-27T17:46:28.604Z,69.60
2019-04-27T17:48:58.594Z,69.80
2019-04-27T17:51:31.004Z,70.00
2019-04-27T17:54:02.966Z,70.40
2019-04-27T17:56:35.922Z,70.70
2019-04-27T17:59:02.176Z,71.10
2019-04-27T18:01:32.055Z,71.20
2019-04-27T18:04:03.098Z,71.40
2019-04-27T18:06:32.667Z,71.60
2019-04-27T18:09:03.415Z,72.00
2019-04-27T18:11:37.265Z,71.80
2019-04-27T18:14:09.432Z,71.90
2019-04-27T18:16:39.389Z,71.00
2019-04-27T18:19:11.839Z,70.50
2019-04-27T18:21:43.072Z,70.60
2019-04-27T18:24:14.061Z,70.90
2019-04-27T18:26:49.344Z,71.20
2019-04-27T18:29:16.002Z,71.70
2019-04-27T18:31:46.443Z,70.50
2019-04-27T18:34:17.320Z,70.60
2019-04-27T18:36:47.401Z,71.40
2019-04-27T18:39:18.212Z,71.00
2019-04-27T18:41:50.570Z,70.90
2019-04-27T18:44:19.111Z,71.50
2019-04-27T18:46:48.950Z,71.70
2019-04-27T18:49:30.216Z,72.40
2019-04-27T18:52:10.186Z,73.00
2019-04-27T18:54:42.139Z,73.80
2019-04-27T18:57:15.261Z,74.00
2019-04-27T18:59:43.589Z,74.70
2019-04-27T19:02:12.965Z,74.90
2019-04-27T19:04:43.298Z,75.20
2019-04-27T19:07:12.607Z,75.10
2019-04-27T19:09:42.191Z,75.40
2019-04-27T19:12:11.517Z,75.70
2019-04-27T19:14:40.792Z,75.80
2019-04-27T19:17:10.208Z,75.90
2019-04-27T19:19:39.529Z,76.80
2019-04-27T19:22:08.995Z,76.20
2019-04-27T19:24:38.630Z,76.30
2019-04-27T19:27:18.485Z,76.30
2019-04-27T19:29:50.896Z,76.40
2019-04-27T19:32:20.249Z,76.50
2019-04-27T19:34:49.570Z,76.60
2019-04-27T19:37:18.969Z,76.70
2019-04-27T19:39:49.782Z,77.00
2019-04-27T19:42:20.432Z,77.20
2019-04-27T19:44:50.015Z,77.40
2019-04-27T19:47:19.397Z,77.30
2019-04-27T19:49:48.676Z,77.30
2019-04-27T19:52:18.359Z,77.20
2019-04-27T19:54:49.421Z,77.40
2019-04-27T19:57:30.888Z,77.40
2019-04-27T19:59:51.567Z,77.40
2019-04-27T20:02:21.237Z,77.20
2019-04-27T20:04:52.141Z,77.10
2019-04-27T20:07:21.439Z,77.20
2019-04-27T20:09:52.357Z,77.30
2019-04-27T20:12:21.646Z,77.30
2019-04-27T20:14:56.930Z,77.30
2019-04-27T20:17:31.256Z,77.30
2019-04-27T20:20:01.261Z,77.00
2019-04-27T20:22:31.836Z,76.90
2019-04-27T20:25:01.975Z,76.80
2019-04-27T20:27:45.295Z,76.70
2019-04-27T20:30:06.237Z,76.60
2019-04-27T20:32:35.612Z,76.50
2019-04-27T20:35:06.520Z,76.40
2019-04-27T20:37:35.816Z,76.40
2019-04-27T20:40:08.706Z,76.20
2019-04-27T20:42:37.996Z,76.20
2019-04-27T20:45:07.509Z,76.10
2019-04-27T20:47:36.902Z,76.10
2019-04-27T20:50:06.912Z,76.10
2019-04-27T20:52:40.906Z,76.40
2019-04-27T20:55:11.324Z,76.50
2019-04-27T20:57:41.685Z,76.60
2019-04-27T21:00:12.336Z,76.70
2019-04-27T21:02:44.888Z,76.80
2019-04-27T21:05:18.588Z,77.00
2019-04-27T21:07:55.205Z,77.20
2019-04-27T21:10:25.444Z,77.20
2019-04-27T21:12:54.769Z,77.40
2019-04-27T21:15:24.120Z,77.60
2019-04-27T21:17:53.382Z,77.70
2019-04-27T21:20:22.737Z,78.00
2019-04-27T21:22:53.450Z,77.80
2019-04-27T21:25:22.872Z,78.20
2019-04-27T21:27:52.171Z,78.20
2019-04-27T21:30:21.485Z,78.30
2019-04-27T21:32:50.866Z,78.30
2019-04-27T21:35:21.737Z,78.50
2019-04-27T21:37:51.280Z,78.60
2019-04-27T21:40:22.304Z,78.80
2019-04-27T21:42:51.575Z,79.20
2019-04-27T21:45:22.141Z,79.00
2019-04-27T21:47:51.919Z,78.90
2019-04-27T21:50:23.185Z,78.70
2019-04-27T21:53:00.598Z,78.60
2019-04-27T21:55:36.167Z,78.40
2019-04-27T21:58:05.437Z,78.50
2019-04-27T22:00:38.415Z,78.40
2019-04-27T22:03:11.459Z,78.50
2019-04-27T22:05:41.694Z,78.40
2019-04-27T22:08:11.682Z,78.40
2019-04-27T22:10:41.271Z,78.50
2019-04-27T22:13:10.536Z,78.40
2019-04-27T22:15:41.540Z,78.10
2019-04-27T22:18:11.225Z,78.20
2019-04-27T22:20:42.365Z,78.10
2019-04-27T22:23:13.610Z,78.00
2019-04-27T22:25:43.069Z,78.00
2019-04-27T22:28:12.372Z,77.80
2019-04-27T22:30:41.629Z,77.80
2019-04-27T22:33:11.318Z,77.60
2019-04-27T22:35:41.417Z,77.50
2019-04-27T22:38:11.939Z,77.40
2019-04-27T22:40:50.832Z,77.20
2019-04-27T22:43:41.169Z,77.00
2019-04-27T22:46:11.941Z,76.60
2019-04-27T22:48:41.640Z,76.60
2019-04-27T22:51:11.684Z,76.60
2019-04-27T22:53:41.144Z,76.40
2019-04-27T22:56:13.505Z,76.40
2019-04-27T22:58:56.972Z,76.30
2019-04-27T23:01:26.381Z,76.40
2019-04-27T23:03:57.293Z,76.30
2019-04-27T23:06:26.569Z,77.10
2019-04-27T23:08:55.833Z,76.30
2019-04-27T23:11:25.116Z,76.30
2019-04-27T23:13:54.393Z,76.30
2019-04-27T23:16:25.314Z,76.40
2019-04-27T23:18:54.598Z,76.30
2019-04-27T23:21:23.869Z,76.20
2019-04-27T23:23:53.133Z,75.90
2019-04-27T23:26:22.405Z,75.50
2019-04-27T23:28:51.710Z,75.40
2019-04-27T23:31:28.285Z,75.50
2019-04-27T23:33:57.561Z,75.50
2019-04-27T23:36:26.835Z,75.60
2019-04-27T23:38:56.109Z,75.60
2019-04-27T23:41:25.372Z,75.80
2019-04-27T23:43:54.657Z,75.80
2019-04-27T23:46:23.928Z,75.70
2019-04-27T23:48:53.904Z,75.80
2019-04-27T23:51:37.041Z,76.20
2019-04-27T23:54:06.309Z,76.70
2019-04-27T23:56:36.541Z,77.10
2019-04-27T23:59:05.812Z,77.40
